createdAt,value
2018-09-08T00:00:50.008Z,6.6
2018-09-08T00:02:50.028Z,6.5
2018-09-08T00:04:50.372Z,6.5
2018-09-08T00:06:49.566Z,6.5
2018-09-08T00:08:49.573Z,6.4
2018-09-08T00:10:49.579Z,6.4
2018-09-08T00:12:49.667Z,6.4
2018-09-08T00:14:49.694Z,6.4
2018-09-08T00:16:49.844Z,6.2
2018-09-08T00:18:49.964Z,6.5
2018-09-08T00:20:50.001Z,6.5
2018-09-08T00:22:50.003Z,6.7
2018-09-08T00:24:49.968Z,6.1
2018-09-08T00:26:50.056Z,6.3
2018-09-08T00:28:49.999Z,6.3
2018-09-08T00:30:49.538Z,6.3
2018-09-08T00:32:49.470Z,6.9
2018-09-08T00:34:49.801Z,6.7
2018-09-08T00:36:49.893Z,6.7
2018-09-08T00:38:49.945Z,6.0
2018-09-08T00:40:49.963Z,6.0
2018-09-08T00:42:50.033Z,6.3
2018-09-08T00:44:50.051Z,6.9
2018-09-08T00:46:50.292Z,6.0
2018-09-08T00:48:50.303Z,5.8
2018-09-08T00:50:50.308Z,5.8
2018-09-08T00:52:50.295Z,6.9
2018-09-08T00:54:50.262Z,6.0
2018-09-08T00:56:50.439Z,6.0
2018-09-08T00:58:49.891Z,5.7
2018-09-08T01:00:49.857Z,5.7
2018-09-08T01:02:49.816Z,6.2
2018-09-08T01:04:50.053Z,5.9
2018-09-08T01:06:50.219Z,6.3
2018-09-08T01:08:50.150Z,6.3
2018-09-08T01:10:50.142Z,6.7
2018-09-08T01:12:50.056Z,5.9
2018-09-08T01:14:50.077Z,5.6
2018-09-08T01:16:50.335Z,5.6
2018-09-08T01:18:50.382Z,5.5
2018-09-08T01:20:50.322Z,5.4
2018-09-08T01:22:49.491Z,5.6
2018-09-08T01:24:49.463Z,6.6
2018-09-08T01:26:49.663Z,6.6
2018-09-08T01:28:49.707Z,5.5
2018-09-08T01:30:49.685Z,5.5
2018-09-08T01:32:49.685Z,5.5
2018-09-08T01:34:49.972Z,5.1
2018-09-08T01:36:50.192Z,5.0
2018-09-08T01:38:50.120Z,5.0
2018-09-08T01:40:50.208Z,5.6
2018-09-08T01:42:50.237Z,5.6
2018-09-08T01:44:49.580Z,5.4
2018-09-08T01:46:49.781Z,5.5
2018-09-08T01:48:49.735Z,5.5
2018-09-08T01:50:49.715Z,5.1
2018-09-08T01:52:49.720Z,5.6
2018-09-08T01:54:49.715Z,5.9
2018-09-08T01:56:49.921Z,5.9
2018-09-08T01:58:49.911Z,5.3
2018-09-08T02:00:49.928Z,5.0
2018-09-08T02:02:49.950Z,5.3
2018-09-08T02:04:50.317Z,5.3
2018-09-08T02:06:49.503Z,5.1
2018-09-08T02:08:49.469Z,5.0
2018-09-08T02:10:49.457Z,5.3
2018-09-08T02:12:49.561Z,5.4
2018-09-08T02:14:49.547Z,5.4
2018-09-08T02:16:49.697Z,5.1
2018-09-08T02:18:49.729Z,5.4
2018-09-08T02:20:49.735Z,5.4
2018-09-08T02:22:49.672Z,5.4
2018-09-08T02:24:49.721Z,5.4
2018-09-08T02:26:49.859Z,5.6
2018-09-08T02:28:49.847Z,5.6
2018-09-08T02:30:49.802Z,5.8
2018-09-08T02:32:49.836Z,5.7
2018-09-08T02:34:50.104Z,5.7
2018-09-08T02:36:50.414Z,5.3
2018-09-08T02:38:49.521Z,5.3
2018-09-08T02:40:49.680Z,5.2
2018-09-08T02:42:49.719Z,5.3
2018-09-08T02:44:49.809Z,5.3
2018-09-08T02:46:50.045Z,5.4
2018-09-08T02:48:50.100Z,5.2
2018-09-08T02:50:50.114Z,5.7
2018-09-08T02:52:50.112Z,5.1
2018-09-08T02:54:50.136Z,5.1
2018-09-08T02:56:50.201Z,5.6
2018-09-08T02:58:50.369Z,5.6
2018-09-08T03:00:50.408Z,5.7
2018-09-08T03:02:49.430Z,5.7
2018-09-08T03:04:49.801Z,5.7
2018-09-08T03:06:50.004Z,6.0
2018-09-08T03:08:50.018Z,5.7
2018-09-08T03:10:49.983Z,5.7
2018-09-08T03:12:50.013Z,5.6
2018-09-08T03:14:50.016Z,5.9
2018-09-08T03:16:50.117Z,5.9
2018-09-08T03:18:50.079Z,5.9
2018-09-08T03:20:50.042Z,6.0
2018-09-08T03:22:50.073Z,6.0
2018-09-08T03:24:50.071Z,8.5
2018-09-08T03:26:50.392Z,5.8
2018-09-08T03:28:50.415Z,6.2
2018-09-08T03:30:50.373Z,6.5
2018-09-08T03:32:49.448Z,6.5
2018-09-08T03:34:49.945Z,6.1
2018-09-08T03:36:50.090Z,6.1
2018-09-08T03:38:50.115Z,7.1
2018-09-08T03:40:50.112Z,7.1
2018-09-08T03:42:50.127Z,6.8
2018-09-08T03:44:50.055Z,6.5
2018-09-08T03:46:50.309Z,6.3
2018-09-08T03:48:50.218Z,7.2
2018-09-08T03:50:50.271Z,7.2
2018-09-08T03:52:50.313Z,6.2
2018-09-08T03:54:50.245Z,6.5
2018-09-08T03:56:49.474Z,6.0
2018-09-08T03:58:49.499Z,5.8
2018-09-08T04:00:49.719Z,5.8
2018-09-08T04:02:49.791Z,6.4
2018-09-08T04:04:50.263Z,7.2
2018-09-08T04:06:49.461Z,7.2
2018-09-08T04:08:49.471Z,7.2
2018-09-08T04:10:49.606Z,7.2
2018-09-08T04:12:49.600Z,7.6
2018-09-08T04:14:49.688Z,7.1
2018-09-08T04:16:49.893Z,7.6
2018-09-08T04:18:49.888Z,7.2
2018-09-08T04:20:49.897Z,8.4
2018-09-08T04:22:49.927Z,8.4
2018-09-08T04:24:50.127Z,7.7
2018-09-08T04:26:49.720Z,7.7
2018-09-08T04:28:49.726Z,7.5
2018-09-08T04:30:49.787Z,7.5
2018-09-08T04:32:49.835Z,7.5
2018-09-08T04:34:49.926Z,8.0
2018-09-08T04:36:50.122Z,7.3
2018-09-08T04:38:50.153Z,8.5
2018-09-08T04:40:50.124Z,8.5
2018-09-08T04:42:49.485Z,8.0
2018-09-08T04:44:49.493Z,8.1
2018-09-08T04:46:49.624Z,8.0
2018-09-08T04:48:49.609Z,8.0
2018-09-08T04:50:49.676Z,8.2
2018-09-08T04:52:49.717Z,7.7
2018-09-08T04:54:49.660Z,7.6
2018-09-08T04:56:49.697Z,7.6
2018-09-08T04:58:49.774Z,8.4
2018-09-08T05:00:49.683Z,8.8
2018-09-08T05:02:49.677Z,9.1
2018-09-08T05:04:49.999Z,8.0
2018-09-08T05:06:50.180Z,8.3
2018-09-08T05:08:50.174Z,8.3
2018-09-08T05:10:50.172Z,8.2
2018-09-08T05:12:50.169Z,8.3
2018-09-08T05:14:50.316Z,7.9
2018-09-08T05:16:49.506Z,8.3
2018-09-08T05:18:49.585Z,8.3
2018-09-08T05:20:49.742Z,8.2
2018-09-08T05:22:49.873Z,9.0
2018-09-08T05:24:49.899Z,9.0
2018-09-08T05:26:50.210Z,8.7
2018-09-08T05:28:50.138Z,8.8
2018-09-08T05:30:50.159Z,8.2
2018-09-08T05:32:50.235Z,8.2
2018-09-08T05:34:49.501Z,8.1
2018-09-08T05:36:49.646Z,8.2
2018-09-08T05:38:49.570Z,8.2
2018-09-08T05:40:49.682Z,8.3
2018-09-08T05:42:49.763Z,8.5
2018-09-08T05:44:49.961Z,8.1
2018-09-08T05:46:50.017Z,8.1
2018-09-08T05:48:50.115Z,9.1
2018-09-08T05:50:49.564Z,8.3
2018-09-08T05:52:49.691Z,8.2
2018-09-08T05:54:49.627Z,10.8
2018-09-08T05:56:49.755Z,10.8
2018-09-08T05:58:49.727Z,8.7
2018-09-08T06:00:49.736Z,8.4
2018-09-08T06:02:49.725Z,8.8
2018-09-08T06:04:50.112Z,8.2
2018-09-08T06:06:50.335Z,8.2
2018-09-08T06:08:50.211Z,9.3
2018-09-08T06:10:50.246Z,9.2
2018-09-08T06:12:50.402Z,9.1
2018-09-08T06:14:50.364Z,9.1
2018-09-08T06:16:49.568Z,9.4
2018-09-08T06:18:49.584Z,9.3
2018-09-08T06:20:49.674Z,9.2
2018-09-08T06:22:49.703Z,9.5
2018-09-08T06:24:49.756Z,9.5
2018-09-08T06:26:49.903Z,10.0
2018-09-08T06:28:49.962Z,10.0
2018-09-08T06:30:49.993Z,10.7
2018-09-08T06:32:49.909Z,10.3
2018-09-08T06:34:50.367Z,10.3
2018-09-08T06:36:49.576Z,10.9
2018-09-08T06:38:49.603Z,10.3
2018-09-08T06:40:49.727Z,10.3
2018-09-08T06:42:49.711Z,10.2
2018-09-08T06:44:49.688Z,10.4
2018-09-08T06:46:49.515Z,10.4
2018-09-08T06:48:49.493Z,11.6
2018-09-08T06:50:49.561Z,11.6
2018-09-08T06:52:49.575Z,12.7
2018-09-08T06:54:49.686Z,12.7
2018-09-08T06:56:49.790Z,11.2
2018-09-08T06:58:49.675Z,11.1
2018-09-08T07:00:49.698Z,11.5
2018-09-08T07:02:49.656Z,11.5
2018-09-08T07:04:50.028Z,12.8
2018-09-08T07:06:50.054Z,12.8
2018-09-08T07:08:50.036Z,12.1
2018-09-08T07:10:50.049Z,11.3
2018-09-08T07:12:50.000Z,11.1
2018-09-08T07:14:50.106Z,11.1
2018-09-08T07:16:50.207Z,12.0
2018-09-08T07:18:50.188Z,10.7
2018-09-08T07:20:50.210Z,11.6
2018-09-08T07:22:50.209Z,11.2
2018-09-08T07:24:50.257Z,11.2
2018-09-08T07:26:49.833Z,11.3
2018-09-08T07:28:49.852Z,11.3
2018-09-08T07:30:49.840Z,13.9
2018-09-08T07:32:49.863Z,14.3
2018-09-08T07:34:50.077Z,14.3
2018-09-08T07:36:50.207Z,14.2
2018-09-08T07:38:50.216Z,13.8
2018-09-08T07:40:50.296Z,14.2
2018-09-08T07:42:50.244Z,14.2
2018-09-08T07:44:50.229Z,13.5
2018-09-08T07:46:49.478Z,14.6
2018-09-08T07:48:49.465Z,13.9
2018-09-08T07:50:49.545Z,13.5
2018-09-08T07:52:49.624Z,13.5
2018-09-08T07:54:49.615Z,13.2
2018-09-08T07:56:49.810Z,13.4
2018-09-08T07:58:49.793Z,14.8
2018-09-08T08:00:49.788Z,17.6
2018-09-08T08:02:49.760Z,17.6
2018-09-08T08:04:50.226Z,13.3
2018-09-08T08:06:49.514Z,12.9
2018-09-08T08:08:50.065Z,12.8
2018-09-08T08:10:49.970Z,12.8
2018-09-08T08:12:50.029Z,13.2
2018-09-08T08:14:50.069Z,12.3
2018-09-08T08:16:50.212Z,12.4
2018-09-08T08:18:50.309Z,12.4
2018-09-08T08:20:49.578Z,12.4
2018-09-08T08:22:49.737Z,12.5
2018-09-08T08:24:49.832Z,12.5
2018-09-08T08:26:50.042Z,12.0
2018-09-08T08:28:50.042Z,12.0
2018-09-08T08:30:49.999Z,10.5
2018-09-08T08:32:49.948Z,9.0
2018-09-08T08:34:50.271Z,8.8
2018-09-08T08:36:49.460Z,8.0
2018-09-08T08:38:49.583Z,7.1
2018-09-08T08:40:49.606Z,7.1
2018-09-08T08:42:49.622Z,7.8
2018-09-08T08:44:49.725Z,5.5
2018-09-08T08:46:49.997Z,4.2
2018-09-08T08:48:50.056Z,4.2
2018-09-08T08:50:50.064Z,4.2
2018-09-08T08:52:50.061Z,5.0
2018-09-08T08:54:50.235Z,6.0
2018-09-08T08:56:49.438Z,7.1
2018-09-08T08:58:50.426Z,7.1
2018-09-08T09:00:49.534Z,6.8
2018-09-08T09:02:49.664Z,6.0
2018-09-08T09:04:49.989Z,4.1
2018-09-08T09:06:50.149Z,3.5
2018-09-08T09:08:50.374Z,3.5
2018-09-08T09:10:50.469Z,3.7
2018-09-08T09:12:49.585Z,4.5
2018-09-08T09:14:50.035Z,4.4
2018-09-08T09:16:50.247Z,4.6
2018-09-08T09:18:50.791Z,4.6
2018-09-08T09:20:49.633Z,4.6
2018-09-08T09:22:49.689Z,4.7
2018-09-08T09:24:50.062Z,4.4
2018-09-08T09:26:49.619Z,3.7
2018-09-08T09:28:49.578Z,3.7
2018-09-08T09:30:49.604Z,3.9
2018-09-08T09:32:49.635Z,3.5
2018-09-08T09:34:50.019Z,3.8
2018-09-08T09:36:50.148Z,3.5
2018-09-08T09:38:50.223Z,3.5
2018-09-08T09:40:50.204Z,3.7
2018-09-08T09:42:50.213Z,4.6
2018-09-08T09:44:50.284Z,4.4
2018-09-08T09:46:49.439Z,4.4
2018-09-08T09:48:49.516Z,4.2
2018-09-08T09:50:49.547Z,3.7
2018-09-08T09:52:49.711Z,4.5
2018-09-08T09:54:49.717Z,4.7
2018-09-08T09:56:49.885Z,4.7
2018-09-08T09:58:50.103Z,3.9
2018-09-08T10:00:50.154Z,4.2
2018-09-08T10:02:49.746Z,4.8
2018-09-08T10:04:50.411Z,4.8
2018-09-08T10:06:49.919Z,3.9
2018-09-08T10:08:50.117Z,3.6
2018-09-08T10:10:50.258Z,3.6
2018-09-08T10:12:50.411Z,3.9
2018-09-08T10:14:49.573Z,3.9
2018-09-08T10:16:50.035Z,3.5
2018-09-08T10:18:50.355Z,3.5
2018-09-08T10:20:49.585Z,3.7
2018-09-08T10:22:49.726Z,3.2
2018-09-08T10:24:49.925Z,3.2
2018-09-08T10:26:49.485Z,3.6
2018-09-08T10:28:49.674Z,3.0
2018-09-08T10:30:49.979Z,3.0
2018-09-08T10:32:50.228Z,2.7
2018-09-08T10:34:49.672Z,2.7
2018-09-08T10:36:50.315Z,4.8
2018-09-08T10:38:50.263Z,4.9
2018-09-08T10:40:50.350Z,3.3
2018-09-08T10:42:50.310Z,3.1
2018-09-08T10:44:50.358Z,3.1
2018-09-08T10:46:49.554Z,3.2
2018-09-08T10:48:49.566Z,2.9
2018-09-08T10:50:49.704Z,2.9
2018-09-08T10:52:50.117Z,3.1
2018-09-08T10:54:50.147Z,3.1
2018-09-08T10:56:50.330Z,3.3
2018-09-08T10:58:50.260Z,3.1
2018-09-08T11:00:50.282Z,3.1
2018-09-08T11:02:50.538Z,2.4
2018-09-08T11:04:50.137Z,2.4
2018-09-08T11:06:50.427Z,3.0
2018-09-08T11:08:49.732Z,3.4
2018-09-08T11:10:49.747Z,2.9
2018-09-08T11:12:49.764Z,2.9
2018-09-08T11:14:49.713Z,3.7
2018-09-08T11:16:49.988Z,2.8
2018-09-08T11:18:49.987Z,2.3
2018-09-08T11:20:50.338Z,3.0
2018-09-08T11:22:50.399Z,3.0
2018-09-08T11:24:49.496Z,2.7
2018-09-08T11:26:49.710Z,2.6
2018-09-08T11:28:49.664Z,2.6
2018-09-08T11:30:49.672Z,2.6
2018-09-08T11:32:49.604Z,2.2
2018-09-08T11:34:50.036Z,2.0
2018-09-08T11:36:50.197Z,2.4
2018-09-08T11:38:50.137Z,2.4
2018-09-08T11:40:50.134Z,3.1
2018-09-08T11:42:50.164Z,3.1
2018-09-08T11:44:50.327Z,2.5
2018-09-08T11:46:50.071Z,2.4
2018-09-08T11:48:50.120Z,2.4
2018-09-08T11:50:50.146Z,3.6
2018-09-08T11:52:50.426Z,3.6
2018-09-08T11:54:49.644Z,3.9
2018-09-08T11:56:49.841Z,2.4
2018-09-08T11:58:49.807Z,2.2
2018-09-08T12:00:49.840Z,2.6
2018-09-08T12:02:49.907Z,2.6
2018-09-08T12:04:50.218Z,2.6
2018-09-08T12:06:50.414Z,1.9
2018-09-08T12:08:49.455Z,2.0
2018-09-08T12:10:49.490Z,2.2
2018-09-08T12:12:49.551Z,2.2
2018-09-08T12:14:49.705Z,2.0
2018-09-08T12:16:49.853Z,2.0
2018-09-08T12:18:49.902Z,1.9
2018-09-08T12:20:49.925Z,2.1
2018-09-08T12:22:49.937Z,2.1
2018-09-08T12:24:49.936Z,2.3
2018-09-08T12:26:50.108Z,2.0
2018-09-08T12:28:50.090Z,2.0
2018-09-08T12:30:50.182Z,2.0
2018-09-08T12:32:49.590Z,2.0
2018-09-08T12:34:50.041Z,1.9
2018-09-08T12:36:50.188Z,2.3
2018-09-08T12:38:50.249Z,2.3
2018-09-08T12:40:49.854Z,2.2
2018-09-08T12:42:49.851Z,3.0
2018-09-08T12:44:49.888Z,2.1
2018-09-08T12:46:49.985Z,2.0
2018-09-08T12:48:50.017Z,2.0
2018-09-08T12:50:50.066Z,1.9
2018-09-08T12:52:50.156Z,2.1
2018-09-08T12:54:50.080Z,1.8
2018-09-08T12:56:50.282Z,2.3
2018-09-08T12:58:50.312Z,2.3
2018-09-08T13:00:50.289Z,2.0
2018-09-08T13:02:50.291Z,2.1
2018-09-08T13:04:49.736Z,2.1
2018-09-08T13:06:49.911Z,1.8
2018-09-08T13:08:49.941Z,1.8
2018-09-08T13:10:49.926Z,2.7
2018-09-08T13:12:49.900Z,1.9
2018-09-08T13:14:49.907Z,1.9
2018-09-08T13:16:50.092Z,1.8
2018-09-08T13:18:50.051Z,1.8
2018-09-08T13:20:50.070Z,2.0
2018-09-08T13:22:50.295Z,2.0
2018-09-08T13:24:50.237Z,2.6
2018-09-08T13:26:49.593Z,2.6
2018-09-08T13:28:49.640Z,2.5
2018-09-08T13:30:49.670Z,1.8
2018-09-08T13:32:49.668Z,1.9
2018-09-08T13:34:49.984Z,2.3
2018-09-08T13:36:50.177Z,2.0
2018-09-08T13:38:50.171Z,2.0
2018-09-08T13:40:50.174Z,2.0
2018-09-08T13:42:50.222Z,3.9
2018-09-08T13:44:50.260Z,1.7
2018-09-08T13:46:50.393Z,1.8
2018-09-08T13:48:49.936Z,1.8
2018-09-08T13:50:49.936Z,1.7
2018-09-08T13:52:49.966Z,2.4
2018-09-08T13:54:49.490Z,1.8
2018-09-08T13:56:49.735Z,1.8
2018-09-08T13:58:49.724Z,2.1
2018-09-08T14:00:49.685Z,2.2
2018-09-08T14:02:49.703Z,1.7
2018-09-08T14:04:49.992Z,1.9
2018-09-08T14:06:50.108Z,1.9
2018-09-08T14:08:50.272Z,2.2
2018-09-08T14:10:50.274Z,2.2
2018-09-08T14:12:50.291Z,2.2
2018-09-08T14:14:50.272Z,1.7
2018-09-08T14:16:50.380Z,1.7
2018-09-08T14:18:49.440Z,1.6
2018-09-08T14:20:49.552Z,1.6
2018-09-08T14:22:49.563Z,1.7
2018-09-08T14:24:49.590Z,1.7
2018-09-08T14:26:49.764Z,1.7
2018-09-08T14:28:49.779Z,2.0
2018-09-08T14:30:49.786Z,1.8
2018-09-08T14:32:49.783Z,1.9
2018-09-08T14:34:50.190Z,1.9
2018-09-08T14:36:49.568Z,1.7
2018-09-08T14:38:50.110Z,1.7
2018-09-08T14:40:49.593Z,1.9
2018-09-08T14:42:49.820Z,1.8
2018-09-08T14:44:50.144Z,1.9
2018-09-08T14:46:50.339Z,1.9
2018-09-08T14:48:50.432Z,1.8
2018-09-08T14:50:49.544Z,1.8
2018-09-08T14:52:49.668Z,1.8
2018-09-08T14:54:49.653Z,2.6
2018-09-08T14:56:49.940Z,3.1
2018-09-08T14:58:49.920Z,2.9
2018-09-08T15:00:49.997Z,1.7
2018-09-08T15:02:50.013Z,2.8
2018-09-08T15:04:50.589Z,2.8
2018-09-08T15:06:50.294Z,1.8
2018-09-08T15:08:50.415Z,2.5
2018-09-08T15:10:50.439Z,1.8
2018-09-08T15:12:49.589Z,1.9
2018-09-08T15:14:49.713Z,1.9
2018-09-08T15:16:49.906Z,1.9
2018-09-08T15:18:49.878Z,1.8
2018-09-08T15:20:49.859Z,1.8
2018-09-08T15:22:49.929Z,1.7
2018-09-08T15:24:49.972Z,1.7
2018-09-08T15:26:50.214Z,2.2
2018-09-08T15:28:50.226Z,1.8
2018-09-08T15:30:50.179Z,2.0
2018-09-08T15:32:50.228Z,1.9
2018-09-08T15:34:49.946Z,1.9
2018-09-08T15:36:50.078Z,1.7
2018-09-08T15:38:49.991Z,1.7
2018-09-08T15:40:50.062Z,1.6
2018-09-08T15:42:50.204Z,1.6
2018-09-08T15:44:50.273Z,1.9
2018-09-08T15:46:49.599Z,1.6
2018-09-08T15:48:49.643Z,1.6
2018-09-08T15:50:49.708Z,2.0
2018-09-08T15:52:49.721Z,2.0
2018-09-08T15:54:49.726Z,1.6
2018-09-08T15:56:49.959Z,1.9
2018-09-08T15:58:49.983Z,1.7
2018-09-08T16:00:50.064Z,2.3
2018-09-08T16:02:50.053Z,2.3
2018-09-08T16:04:49.505Z,3.0
2018-09-08T16:06:49.912Z,1.9
2018-09-08T16:08:49.970Z,3.4
2018-09-08T16:10:50.083Z,2.1
2018-09-08T16:12:49.440Z,2.1
2018-09-08T16:14:49.563Z,2.2
2018-09-08T16:16:49.915Z,3.7
2018-09-08T16:18:50.071Z,3.7
2018-09-08T16:20:49.595Z,2.8
2018-09-08T16:22:49.689Z,2.7
2018-09-08T16:24:49.840Z,2.0
2018-09-08T16:26:49.958Z,1.9
2018-09-08T16:28:50.019Z,1.8
2018-09-08T16:30:50.147Z,1.8
2018-09-08T16:32:50.090Z,1.8
2018-09-08T16:34:49.685Z,2.3
2018-09-08T16:36:49.781Z,3.4
2018-09-08T16:38:49.807Z,2.3
2018-09-08T16:40:49.710Z,2.3
2018-09-08T16:42:49.796Z,2.1
2018-09-08T16:44:49.967Z,2.5
2018-09-08T16:46:50.226Z,2.3
2018-09-08T16:48:50.202Z,1.8
2018-09-08T16:50:49.519Z,1.8
2018-09-08T16:52:49.668Z,2.7
2018-09-08T16:54:49.639Z,2.8
2018-09-08T16:56:49.846Z,2.4
2018-09-08T16:58:49.871Z,2.4
2018-09-08T17:00:50.040Z,1.9
2018-09-08T17:02:50.015Z,2.4
2018-09-08T17:04:50.327Z,4.5
2018-09-08T17:06:50.005Z,3.7
2018-09-08T17:08:49.460Z,2.5
2018-09-08T17:10:49.609Z,2.5
2018-09-08T17:12:49.879Z,2.2
2018-09-08T17:14:49.962Z,2.5
2018-09-08T17:16:50.187Z,2.2
2018-09-08T17:18:50.247Z,2.2
2018-09-08T17:20:50.229Z,2.2
2018-09-08T17:22:50.376Z,3.0
2018-09-08T17:24:49.732Z,2.2
2018-09-08T17:26:49.915Z,2.3
2018-09-08T17:28:50.011Z,2.3
2018-09-08T17:30:50.023Z,2.1
2018-09-08T17:32:50.036Z,3.9
2018-09-08T17:34:50.371Z,4.2
2018-09-08T17:36:49.627Z,3.2
2018-09-08T17:38:49.630Z,3.2
2018-09-08T17:40:49.906Z,2.8
2018-09-08T17:42:49.989Z,2.6
2018-09-08T17:44:49.978Z,2.6
2018-09-08T17:46:50.116Z,2.9
2018-09-08T17:48:50.101Z,2.9
2018-09-08T17:50:50.178Z,8.2
2018-09-08T17:52:50.299Z,3.2
2018-09-08T17:54:50.422Z,4.9
2018-09-08T17:56:49.725Z,5.5
2018-09-08T17:58:49.715Z,5.5
2018-09-08T18:00:50.055Z,6.9
2018-09-08T18:02:50.020Z,6.9
2018-09-08T18:04:49.594Z,4.0
2018-09-08T18:06:49.926Z,4.0
2018-09-08T18:08:49.965Z,4.1
2018-09-08T18:10:50.006Z,4.7
2018-09-08T18:12:50.070Z,3.9
2018-09-08T18:14:50.109Z,3.7
2018-09-08T18:16:50.348Z,3.7
2018-09-08T18:18:49.456Z,3.2
2018-09-08T18:20:49.591Z,3.3
2018-09-08T18:22:49.727Z,4.5
2018-09-08T18:24:49.784Z,4.5
2018-09-08T18:26:49.944Z,4.1
2018-09-08T18:28:49.967Z,3.8
2018-09-08T18:30:50.007Z,4.1
2018-09-08T18:32:50.062Z,4.1
2018-09-08T18:34:49.894Z,3.3
2018-09-08T18:36:50.044Z,4.4
2018-09-08T18:38:50.200Z,3.2
2018-09-08T18:40:50.256Z,6.8
2018-09-08T18:42:50.273Z,4.3
2018-09-08T18:44:50.315Z,3.2
2018-09-08T18:46:49.505Z,3.2
2018-09-08T18:48:49.585Z,3.6
2018-09-08T18:50:49.610Z,5.9
2018-09-08T18:52:49.716Z,3.2
2018-09-08T18:54:49.831Z,3.2
2018-09-08T18:56:49.969Z,3.8
2018-09-08T18:58:50.014Z,6.2
2018-09-08T19:00:50.156Z,6.2
2018-09-08T19:02:50.184Z,4.0
2018-09-08T19:04:49.714Z,4.1
2018-09-08T19:06:49.919Z,4.1
2018-09-08T19:08:49.961Z,4.6
2018-09-08T19:10:49.982Z,3.4
2018-09-08T19:12:50.003Z,4.6
2018-09-08T19:14:50.035Z,4.6
2018-09-08T19:16:49.821Z,4.0
2018-09-08T19:18:49.818Z,3.8
2018-09-08T19:20:49.856Z,3.7
2018-09-08T19:22:49.938Z,4.0
2018-09-08T19:24:50.038Z,4.0
2018-09-08T19:26:50.183Z,5.2
2018-09-08T19:28:50.229Z,3.8
2018-09-08T19:30:50.213Z,4.7
2018-09-08T19:32:50.325Z,4.7
2018-09-08T19:34:49.641Z,4.1
2018-09-08T19:36:49.889Z,4.4
2018-09-08T19:38:49.940Z,4.7
2018-09-08T19:40:49.955Z,6.3
2018-09-08T19:42:50.387Z,6.3
2018-09-08T19:44:49.958Z,4.1
2018-09-08T19:46:50.125Z,4.5
2018-09-08T19:48:50.201Z,3.8
2018-09-08T19:50:50.277Z,5.2
2018-09-08T19:52:49.518Z,5.2
2018-09-08T19:54:49.817Z,4.0
2018-09-08T19:56:50.285Z,3.3
2018-09-08T19:58:50.337Z,4.0
2018-09-08T20:00:49.502Z,4.0
2018-09-08T20:02:49.532Z,5.1
2018-09-08T20:04:49.947Z,4.8
2018-09-08T20:06:50.151Z,5.3
2018-09-08T20:08:50.245Z,5.3
2018-09-08T20:10:50.267Z,4.2
2018-09-08T20:12:50.255Z,4.2
2018-09-08T20:14:50.306Z,4.9
2018-09-08T20:16:49.489Z,3.5
2018-09-08T20:18:49.562Z,4.7
2018-09-08T20:20:49.543Z,4.0
2018-09-08T20:22:49.579Z,4.0
2018-09-08T20:24:49.621Z,4.1
2018-09-08T20:26:50.181Z,4.6
2018-09-08T20:28:50.427Z,3.5
2018-09-08T20:30:50.007Z,3.5
2018-09-08T20:32:49.962Z,3.5
2018-09-08T20:34:50.370Z,4.7
2018-09-08T20:36:49.849Z,3.4
2018-09-08T20:38:49.898Z,3.4
2018-09-08T20:40:50.069Z,5.4
2018-09-08T20:42:50.097Z,5.4
2018-09-08T20:44:50.140Z,5.5
2018-09-08T20:46:50.338Z,4.1
2018-09-08T20:48:50.390Z,5.0
2018-09-08T20:50:49.475Z,5.0
2018-09-08T20:52:49.567Z,4.3
2018-09-08T20:54:49.558Z,6.8
2018-09-08T20:56:49.907Z,5.0
2018-09-08T20:58:49.919Z,4.7
2018-09-08T21:00:49.946Z,4.7
2018-09-08T21:02:49.909Z,4.9
2018-09-08T21:04:50.363Z,4.8
2018-09-08T21:06:49.675Z,5.0
2018-09-08T21:08:49.803Z,5.0
2018-09-08T21:10:49.932Z,5.0
2018-09-08T21:12:49.933Z,5.0
2018-09-08T21:14:49.915Z,6.2
2018-09-08T21:16:50.030Z,6.2
2018-09-08T21:18:50.046Z,4.5
2018-09-08T21:20:50.054Z,4.5
2018-09-08T21:22:50.054Z,4.7
2018-09-08T21:24:50.212Z,4.7
2018-09-08T21:26:49.654Z,4.2
2018-09-08T21:28:49.644Z,4.2
2018-09-08T21:30:49.562Z,4.6
2018-09-08T21:32:49.722Z,4.1
2018-09-08T21:34:50.084Z,5.2
2018-09-08T21:36:50.252Z,4.8
2018-09-08T21:38:50.224Z,4.8
2018-09-08T21:40:50.188Z,4.9
2018-09-08T21:42:50.224Z,4.3
2018-09-08T21:44:50.216Z,4.3
2018-09-08T21:46:50.279Z,4.5
2018-09-08T21:48:50.287Z,4.5
2018-09-08T21:50:50.272Z,7.7
2018-09-08T21:52:50.266Z,5.6
2018-09-08T21:54:50.439Z,8.1
2018-09-08T21:56:49.699Z,5.0
2018-09-08T21:58:49.726Z,5.0
2018-09-08T22:00:49.726Z,5.9
2018-09-08T22:02:49.909Z,4.3
2018-09-08T22:04:50.274Z,4.7
2018-09-08T22:06:49.556Z,4.7
2018-09-08T22:08:49.666Z,4.7
2018-09-08T22:10:49.735Z,4.3
2018-09-08T22:12:49.769Z,4.2
2018-09-08T22:14:49.811Z,4.5
2018-09-08T22:16:49.992Z,4.5
2018-09-08T22:18:50.065Z,4.8
2018-09-08T22:20:50.105Z,4.4
2018-09-08T22:22:50.134Z,4.6
2018-09-08T22:24:50.174Z,4.6
2018-09-08T22:26:50.398Z,4.6
2018-09-08T22:28:49.551Z,5.1
2018-09-08T22:30:49.558Z,5.0
2018-09-08T22:32:49.673Z,5.1
2018-09-08T22:34:49.495Z,5.1
2018-09-08T22:36:49.710Z,5.3
2018-09-08T22:38:49.729Z,5.3
2018-09-08T22:40:50.220Z,5.3
2018-09-08T22:42:50.370Z,5.3
2018-09-08T22:44:50.322Z,5.8
2018-09-08T22:46:49.589Z,5.8
2018-09-08T22:48:49.710Z,5.3
2018-09-08T22:50:49.720Z,7.2
2018-09-08T22:52:49.771Z,5.9
2018-09-08T22:54:49.866Z,8.0
2018-09-08T22:56:50.193Z,8.0
2018-09-08T22:58:49.642Z,5.1
2018-09-08T23:00:49.705Z,5.2
2018-09-08T23:02:49.694Z,5.2
2018-09-08T23:04:49.990Z,5.2
2018-09-08T23:06:50.140Z,5.4
2018-09-08T23:08:50.133Z,5.0
2018-09-08T23:10:50.223Z,5.0
2018-09-08T23:12:50.205Z,5.4
2018-09-08T23:14:50.358Z,5.4
2018-09-08T23:16:49.550Z,5.6
2018-09-08T23:18:49.614Z,5.3
2018-09-08T23:20:49.708Z,5.2
2018-09-08T23:22:49.790Z,5.3
2018-09-08T23:24:49.816Z,5.3
2018-09-08T23:26:50.122Z,5.1
2018-09-08T23:28:50.196Z,5.2
2018-09-08T23:30:50.161Z,5.2
2018-09-08T23:32:50.267Z,5.3
2018-09-08T23:34:49.562Z,5.3
2018-09-08T23:36:49.751Z,5.4
2018-09-08T23:38:49.880Z,5.4
2018-09-08T23:40:49.999Z,6.4
2018-09-08T23:42:50.125Z,6.4
2018-09-08T23:44:50.097Z,5.0
2018-09-08T23:46:50.295Z,4.7
2018-09-08T23:48:50.306Z,4.7
2018-09-08T23:50:50.253Z,5.4
2018-09-08T23:52:50.398Z,5.4
2018-09-08T23:54:49.439Z,4.9
2018-09-08T23:56:49.606Z,6.3
2018-09-08T23:58:49.665Z,4.7
